createdAt,value
2022-09-23T00:00:19.879Z,13.01
2022-09-23T00:03:23.964Z,12.52
2022-09-23T00:06:28.052Z,12.79
2022-09-23T00:09:30.742Z,12.93
2022-09-23T00:12:33.536Z,12.97
2022-09-23T00:15:39.338Z,12.76
2022-09-23T00:18:43.714Z,12.80
2022-09-23T00:21:46.372Z,12.79
2022-09-23T00:24:49.106Z,12.50
2022-09-23T00:27:51.862Z,12.46
2022-09-23T00:30:54.585Z,12.33
2022-09-23T00:33:59.892Z,12.25
2022-09-23T00:37:02.607Z,12.25
2022-09-23T00:40:06.181Z,12.28
2022-09-23T00:43:10.870Z,11.99
2022-09-23T00:46:16.598Z,12.48
2022-09-23T00:49:24.753Z,12.10
2022-09-23T00:52:28.034Z,12.27
2022-09-23T00:55:32.955Z,11.95
2022-09-23T00:58:37.079Z,12.22
2022-09-23T01:01:39.870Z,12.46
2022-09-23T01:04:44.087Z,12.19
2022-09-23T01:07:46.904Z,12.17
2022-09-23T01:10:52.253Z,12.19
2022-09-23T01:14:00.471Z,11.35
2022-09-23T01:17:05.221Z,11.94
2022-09-23T01:20:32.368Z,11.58
2022-09-23T01:23:57.205Z,11.57
2022-09-23T01:27:08.542Z,11.98
2022-09-23T01:30:18.136Z,11.41
2022-09-23T01:33:24.261Z,11.56
2022-09-23T01:36:28.753Z,11.22
2022-09-23T01:39:35.480Z,11.78
2022-09-23T01:42:39.611Z,11.45
2022-09-23T01:45:44.146Z,11.69
2022-09-23T01:48:51.637Z,11.72
2022-09-23T01:51:56.993Z,11.44
2022-09-23T01:55:06.594Z,11.31
2022-09-23T01:58:10.969Z,11.37
2022-09-23T02:01:20.300Z,11.59
2022-09-23T02:04:26.307Z,11.46
2022-09-23T02:07:30.696Z,11.64
2022-09-23T02:10:36.004Z,11.42
2022-09-23T02:13:41.168Z,11.78
2022-09-23T02:16:45.146Z,11.63
2022-09-23T02:19:51.814Z,11.60
2022-09-23T02:22:57.571Z,11.82
2022-09-23T02:26:04.145Z,11.53
2022-09-23T02:29:11.820Z,11.85
2022-09-23T02:32:15.944Z,11.63
2022-09-23T02:35:22.630Z,12.12
2022-09-23T02:38:30.424Z,11.57
2022-09-23T02:41:36.459Z,12.05
2022-09-23T02:44:39.770Z,11.65
2022-09-23T02:47:45.035Z,11.80
2022-09-23T02:50:49.169Z,11.77
2022-09-23T02:53:52.113Z,12.03
2022-09-23T02:56:55.118Z,11.95
2022-09-23T02:59:58.428Z,11.41
2022-09-23T03:03:18.661Z,11.85
2022-09-23T03:06:27.053Z,11.98
2022-09-23T03:09:31.819Z,11.94
2022-09-23T03:12:38.726Z,11.46
2022-09-23T03:15:46.093Z,11.57
2022-09-23T03:18:50.279Z,11.96
2022-09-23T03:22:00.823Z,11.72
2022-09-23T03:25:05.929Z,11.86
2022-09-23T03:28:08.867Z,11.55
2022-09-23T03:31:12.009Z,11.85
2022-09-23T03:34:15.600Z,11.59
2022-09-23T03:37:22.170Z,11.48
2022-09-23T03:40:26.384Z,11.61
2022-09-23T03:43:30.064Z,11.94
2022-09-23T03:46:35.458Z,12.01
2022-09-23T03:49:39.231Z,11.70
2022-09-23T03:52:43.368Z,11.55
2022-09-23T03:55:46.581Z,11.69
2022-09-23T03:58:49.281Z,11.55
2022-09-23T04:01:52.140Z,11.90
2022-09-23T04:04:54.902Z,11.75
2022-09-23T04:07:58.983Z,11.87
2022-09-23T04:11:01.886Z,11.88
2022-09-23T04:14:04.672Z,11.82
2022-09-23T04:17:07.429Z,11.57
2022-09-23T04:20:10.780Z,11.67
2022-09-23T04:23:14.954Z,12.05
2022-09-23T04:26:19.037Z,11.87
2022-09-23T04:29:21.793Z,11.86
2022-09-23T04:32:25.217Z,12.11
2022-09-23T04:35:27.894Z,12.01
2022-09-23T04:38:32.077Z,12.16
2022-09-23T04:41:34.888Z,12.23
2022-09-23T04:44:38.950Z,12.21
2022-09-23T04:47:41.670Z,12.06
2022-09-23T04:50:44.387Z,12.18
2022-09-23T04:53:49.815Z,11.80
2022-09-23T04:56:52.570Z,12.37
2022-09-23T04:59:56.920Z,12.29
2022-09-23T05:02:59.805Z,12.38
2022-09-23T05:06:02.739Z,12.04
2022-09-23T05:09:08.550Z,12.37
2022-09-23T05:12:11.406Z,12.21
2022-09-23T05:15:15.130Z,12.24
2022-09-23T05:18:20.764Z,12.41
2022-09-23T05:21:24.504Z,12.29
2022-09-23T05:24:28.592Z,12.38
2022-09-23T05:27:31.314Z,12.04
2022-09-23T05:30:34.074Z,12.44
2022-09-23T05:33:37.401Z,12.11
2022-09-23T05:36:40.120Z,12.45
2022-09-23T05:39:44.187Z,12.43
2022-09-23T05:42:46.851Z,12.10
2022-09-23T05:45:49.540Z,12.44
2022-09-23T05:48:52.406Z,12.23
2022-09-23T05:51:55.060Z,12.37
2022-09-23T05:54:59.042Z,12.39
2022-09-23T05:58:01.705Z,12.16
2022-09-23T06:01:10.406Z,12.04
2022-09-23T06:04:14.016Z,12.15
2022-09-23T06:07:16.711Z,12.30
2022-09-23T06:10:20.799Z,12.42
2022-09-23T06:13:23.425Z,12.57
2022-09-23T06:16:26.110Z,12.67
2022-09-23T06:19:28.759Z,12.68
2022-09-23T06:22:31.624Z,12.44
2022-09-23T06:25:36.245Z,12.37
2022-09-23T06:28:40.342Z,12.65
2022-09-23T06:31:43.346Z,12.64
2022-09-23T06:34:51.474Z,12.81
2022-09-23T06:37:54.729Z,12.47
2022-09-23T06:40:59.071Z,12.90
2022-09-23T06:44:02.037Z,12.83
2022-09-23T06:47:04.747Z,12.92
2022-09-23T06:50:08.455Z,12.93
2022-09-23T06:53:11.178Z,12.98
2022-09-23T06:56:15.335Z,12.89
2022-09-23T06:59:18.309Z,12.94
2022-09-23T07:02:21.074Z,12.94
2022-09-23T07:05:24.082Z,13.01
2022-09-23T07:08:27.534Z,12.86
2022-09-23T07:11:31.560Z,13.38
2022-09-23T07:14:34.205Z,13.16
2022-09-23T07:17:36.951Z,13.43
2022-09-23T07:20:39.693Z,13.62
2022-09-23T07:23:42.595Z,13.67
2022-09-23T07:26:46.599Z,13.78
2022-09-23T07:29:50.334Z,13.88
2022-09-23T07:32:53.132Z,13.67
2022-09-23T07:35:55.832Z,13.97
2022-09-23T07:39:00.520Z,13.57
2022-09-23T07:42:05.695Z,14.05
2022-09-23T07:45:09.915Z,13.97
2022-09-23T07:48:12.513Z,13.96
2022-09-23T07:51:17.581Z,14.25
2022-09-23T07:54:20.196Z,13.99
2022-09-23T07:57:24.199Z,14.43
2022-09-23T08:00:26.901Z,14.46
2022-09-23T08:03:29.762Z,14.62
2022-09-23T08:06:32.737Z,14.44
2022-09-23T08:09:39.323Z,14.74
2022-09-23T08:12:43.338Z,14.78
2022-09-23T08:15:53.238Z,14.66
2022-09-23T08:18:57.942Z,14.80
2022-09-23T08:22:02.779Z,14.56
2022-09-23T08:25:08.878Z,14.75
2022-09-23T08:28:16.295Z,14.72
2022-09-23T08:31:18.946Z,15.16
2022-09-23T08:34:22.528Z,14.93
2022-09-23T08:37:25.107Z,15.20
2022-09-23T08:40:27.773Z,15.43
2022-09-23T08:43:32.674Z,15.08
2022-09-23T08:46:37.590Z,15.48
2022-09-23T08:49:46.311Z,15.64
2022-09-23T08:52:52.653Z,15.29
2022-09-23T08:55:55.994Z,15.77
2022-09-23T08:59:05.034Z,15.87
2022-09-23T09:02:10.413Z,15.73
2022-09-23T09:05:13.098Z,16.01
2022-09-23T09:08:24.428Z,15.75
2022-09-23T09:11:31.250Z,16.16
2022-09-23T09:14:38.604Z,16.16
2022-09-23T09:17:45.715Z,16.26
2022-09-23T09:20:52.840Z,16.33
2022-09-23T09:23:56.457Z,16.42
2022-09-23T09:26:59.064Z,16.56
2022-09-23T09:30:02.997Z,16.48
2022-09-23T09:33:06.748Z,16.73
2022-09-23T09:36:20.067Z,16.70
2022-09-23T09:39:26.113Z,16.95
2022-09-23T09:42:35.669Z,16.99
2022-09-23T09:45:59.082Z,16.70
2022-09-23T09:49:03.304Z,16.86
2022-09-23T09:52:24.069Z,17.00
2022-09-23T09:55:27.631Z,16.87
2022-09-23T09:58:33.535Z,17.08
2022-09-23T10:01:37.530Z,17.12
2022-09-23T10:04:40.476Z,16.98
2022-09-23T10:07:43.100Z,17.15
2022-09-23T10:10:54.815Z,17.23
2022-09-23T10:14:09.300Z,17.27
2022-09-23T10:17:16.514Z,17.19
2022-09-23T10:20:19.284Z,17.32
2022-09-23T10:23:23.812Z,17.05
2022-09-23T10:26:27.746Z,17.26
2022-09-23T10:29:31.545Z,17.04
2022-09-23T10:32:37.463Z,17.25
2022-09-23T10:35:40.084Z,17.25
2022-09-23T10:38:42.664Z,17.25
2022-09-23T10:42:07.429Z,17.30
2022-09-23T10:45:37.551Z,17.28
2022-09-23T10:48:48.694Z,17.30
2022-09-23T10:51:55.167Z,17.38
2022-09-23T10:55:02.750Z,17.55
2022-09-23T10:58:14.332Z,17.64
2022-09-23T11:01:22.622Z,17.55
2022-09-23T11:04:46.205Z,18.01
2022-09-23T11:07:52.455Z,18.06
2022-09-23T11:11:03.877Z,17.94
2022-09-23T11:14:17.195Z,18.30
2022-09-23T11:17:33.393Z,18.26
2022-09-23T11:20:42.245Z,18.61
2022-09-23T11:23:55.204Z,18.44
2022-09-23T11:27:01.202Z,19.02
2022-09-23T11:30:08.941Z,18.88
2022-09-23T11:33:24.712Z,19.33
2022-09-23T11:36:32.627Z,19.46
2022-09-23T11:39:37.815Z,19.64
2022-09-23T11:42:43.927Z,19.57
2022-09-23T11:45:48.227Z,19.89
2022-09-23T11:48:52.745Z,19.76
2022-09-23T11:52:02.888Z,19.92
2022-09-23T11:55:18.633Z,19.63
2022-09-23T11:58:26.135Z,19.75
2022-09-23T12:01:37.263Z,19.72
2022-09-23T12:04:53.359Z,19.70
2022-09-23T12:08:02.843Z,19.67
2022-09-23T12:11:07.663Z,19.23
2022-09-23T12:14:14.106Z,19.54
2022-09-23T12:17:23.211Z,19.58
2022-09-23T12:20:36.729Z,19.55
2022-09-23T12:23:51.012Z,19.43
2022-09-23T12:26:56.118Z,19.45
2022-09-23T12:29:59.939Z,19.31
2022-09-23T12:33:09.953Z,19.62
2022-09-23T12:36:12.836Z,19.31
2022-09-23T12:39:18.161Z,19.69
2022-09-23T12:42:21.255Z,19.73
2022-09-23T12:45:38.882Z,19.68
2022-09-23T12:48:46.085Z,19.32
2022-09-23T12:52:13.605Z,19.41
2022-09-23T12:55:46.946Z,19.56
2022-09-23T12:59:14.549Z,19.62
2022-09-23T13:02:27.469Z,19.46
2022-09-23T13:05:47.730Z,19.15
2022-09-23T13:08:50.536Z,19.50
2022-09-23T13:11:54.565Z,19.46
2022-09-23T13:15:03.394Z,19.57
2022-09-23T13:18:40.047Z,19.51
2022-09-23T13:22:02.925Z,19.47
2022-09-23T13:25:16.966Z,19.14
2022-09-23T13:28:29.574Z,19.14
2022-09-23T13:31:32.228Z,18.63
2022-09-23T13:34:36.774Z,18.85
2022-09-23T13:37:43.770Z,19.07
2022-09-23T13:40:47.705Z,19.00
2022-09-23T13:43:52.523Z,19.06
2022-09-23T13:46:56.319Z,19.10
2022-09-23T13:49:58.940Z,18.93
2022-09-23T13:53:02.458Z,18.96
2022-09-23T13:56:06.547Z,19.00
2022-09-23T13:59:21.559Z,18.58
2022-09-23T14:02:25.797Z,18.56
2022-09-23T14:05:28.537Z,18.96
2022-09-23T14:08:31.200Z,18.93
2022-09-23T14:11:35.122Z,18.70
2022-09-23T14:14:40.058Z,18.76
2022-09-23T14:17:46.455Z,18.49
2022-09-23T14:20:50.271Z,18.65
2022-09-23T14:23:52.984Z,18.79
2022-09-23T14:26:56.562Z,18.74
2022-09-23T14:30:00.869Z,18.87
2022-09-23T14:33:08.528Z,18.68
2022-09-23T14:36:32.925Z,18.91
2022-09-23T14:39:34.561Z,18.70
2022-09-23T14:42:41.103Z,18.80
2022-09-23T14:45:47.176Z,18.51
2022-09-23T14:49:00.405Z,18.86
2022-09-23T14:52:06.817Z,18.79
2022-09-23T14:55:16.231Z,18.80
2022-09-23T14:58:19.175Z,18.69
2022-09-23T15:01:36.682Z,18.40
2022-09-23T15:04:39.312Z,18.71
2022-09-23T15:07:41.925Z,18.59
2022-09-23T15:10:44.530Z,18.62
2022-09-23T15:13:49.387Z,18.51
2022-09-23T15:16:53.633Z,18.06
2022-09-23T15:19:57.626Z,18.56
2022-09-23T15:23:01.720Z,18.38
2022-09-23T15:26:06.817Z,18.18
2022-09-23T15:29:09.614Z,18.31
2022-09-23T15:32:13.642Z,18.38
2022-09-23T15:35:16.698Z,17.96
2022-09-23T15:38:19.234Z,18.14
2022-09-23T15:41:23.956Z,17.88
2022-09-23T15:44:29.497Z,17.81
2022-09-23T15:47:33.475Z,17.68
2022-09-23T15:50:36.244Z,17.65
2022-09-23T15:53:38.988Z,17.66
2022-09-23T15:56:42.613Z,17.59
2022-09-23T15:59:45.196Z,17.57
2022-09-23T16:02:49.702Z,17.55
2022-09-23T16:05:52.778Z,17.54
2022-09-23T16:08:55.497Z,17.54
2022-09-23T16:12:05.563Z,17.21
2022-09-23T16:15:11.982Z,17.29
2022-09-23T16:18:16.229Z,17.44
2022-09-23T16:21:19.681Z,17.36
2022-09-23T16:24:27.304Z,17.41
2022-09-23T16:27:30.724Z,17.33
2022-09-23T16:30:34.194Z,17.32
2022-09-23T16:33:38.211Z,17.38
2022-09-23T16:36:42.215Z,17.36
2022-09-23T16:39:44.816Z,17.33
2022-09-23T16:42:47.501Z,17.12
2022-09-23T16:45:50.170Z,17.17
2022-09-23T16:48:55.537Z,17.23
2022-09-23T16:51:58.301Z,17.21
2022-09-23T16:55:00.871Z,17.17
2022-09-23T16:58:04.585Z,17.08
2022-09-23T17:01:25.329Z,17.07
2022-09-23T17:04:29.377Z,16.54
2022-09-23T17:07:32.205Z,16.79
2022-09-23T17:10:34.796Z,16.84
2022-09-23T17:13:37.387Z,16.90
2022-09-23T17:16:40.096Z,16.88
2022-09-23T17:19:44.103Z,16.97
2022-09-23T17:22:46.664Z,17.01
2022-09-23T17:25:49.292Z,17.03
2022-09-23T17:28:52.003Z,16.84
2022-09-23T17:31:54.627Z,16.91
2022-09-23T17:35:04.312Z,16.81
2022-09-23T17:38:06.929Z,16.98
2022-09-23T17:41:09.896Z,16.90
2022-09-23T17:44:12.533Z,16.69
2022-09-23T17:47:15.131Z,16.64
2022-09-23T17:50:19.545Z,16.74
2022-09-23T17:53:22.282Z,16.45
2022-09-23T17:56:25.814Z,16.47
2022-09-23T17:59:28.409Z,16.70
2022-09-23T18:02:31.003Z,16.75
2022-09-23T18:05:35.149Z,16.53
2022-09-23T18:08:38.952Z,16.79
2022-09-23T18:11:42.785Z,16.70
2022-09-23T18:14:47.672Z,16.69
2022-09-23T18:17:50.520Z,16.47
2022-09-23T18:20:54.533Z,15.95
2022-09-23T18:24:06.491Z,16.06
2022-09-23T18:27:19.894Z,15.73
2022-09-23T18:30:22.510Z,15.71
2022-09-23T18:33:25.130Z,15.54
2022-09-23T18:36:30.200Z,15.66
2022-09-23T18:39:32.752Z,15.42
2022-09-23T18:42:35.472Z,15.69
2022-09-23T18:45:38.127Z,15.43
2022-09-23T18:48:58.570Z,15.51
2022-09-23T18:52:03.157Z,15.61
2022-09-23T18:55:06.407Z,15.41
2022-09-23T18:58:10.355Z,15.28
2022-09-23T19:01:13.018Z,15.57
2022-09-23T19:04:17.094Z,15.29
2022-09-23T19:07:21.073Z,15.49
2022-09-23T19:10:23.670Z,15.42
2022-09-23T19:13:26.302Z,15.49
2022-09-23T19:16:29.223Z,15.10
2022-09-23T19:19:32.030Z,15.25
2022-09-23T19:22:36.003Z,15.48
2022-09-23T19:25:38.596Z,15.49
2022-09-23T19:28:41.307Z,15.17
2022-09-23T19:31:44.160Z,15.42
2022-09-23T19:34:46.825Z,15.46
2022-09-23T19:37:50.770Z,15.43
2022-09-23T19:40:53.810Z,15.38
2022-09-23T19:44:03.221Z,15.37
2022-09-23T19:47:06.319Z,15.31
2022-09-23T19:50:09.603Z,15.05
2022-09-23T19:53:13.811Z,15.14
2022-09-23T19:56:17.979Z,15.22
2022-09-23T19:59:20.592Z,15.24
2022-09-23T20:02:23.189Z,15.28
2022-09-23T20:05:26.894Z,14.87
2022-09-23T20:08:30.974Z,14.98
2022-09-23T20:11:34.524Z,15.27
2022-09-23T20:14:37.116Z,15.19
2022-09-23T20:17:40.769Z,14.81
2022-09-23T20:20:43.481Z,15.10
2022-09-23T20:23:47.430Z,14.70
2022-09-23T20:27:07.681Z,14.93
2022-09-23T20:30:11.889Z,14.96
2022-09-23T20:33:15.160Z,14.95
2022-09-23T20:36:17.735Z,14.62
2022-09-23T20:39:21.929Z,14.88
2022-09-23T20:42:24.564Z,14.68
2022-09-23T20:45:27.211Z,14.41
2022-09-23T20:48:30.388Z,14.84
2022-09-23T20:51:34.013Z,14.84
2022-09-23T20:54:39.176Z,14.45
2022-09-23T20:57:41.812Z,14.87
2022-09-23T21:00:44.464Z,14.90
2022-09-23T21:03:48.021Z,14.66
2022-09-23T21:06:50.580Z,14.93
2022-09-23T21:09:54.801Z,14.90
2022-09-23T21:12:57.457Z,14.98
2022-09-23T21:16:03.178Z,14.93
2022-09-23T21:19:08.124Z,14.97
2022-09-23T21:22:12.254Z,14.94
2022-09-23T21:25:27.349Z,14.91
2022-09-23T21:28:32.258Z,14.88
2022-09-23T21:31:36.132Z,14.85
2022-09-23T21:34:38.720Z,14.58
2022-09-23T21:37:41.306Z,14.85
2022-09-23T21:40:57.498Z,14.77
2022-09-23T21:44:00.654Z,14.47
2022-09-23T21:47:03.450Z,14.59
2022-09-23T21:50:07.345Z,14.83
2022-09-23T21:53:09.952Z,14.88
2022-09-23T21:56:20.278Z,14.74
2022-09-23T21:59:23.402Z,14.83
2022-09-23T22:02:25.980Z,14.74
2022-09-23T22:05:28.571Z,14.78
2022-09-23T22:08:34.996Z,14.43
2022-09-23T22:11:56.877Z,14.70
2022-09-23T22:14:59.429Z,14.63
2022-09-23T22:18:02.289Z,14.49
2022-09-23T22:21:05.261Z,14.67
2022-09-23T22:24:09.306Z,14.41
2022-09-23T22:27:13.984Z,14.66
2022-09-23T22:30:34.251Z,14.70
2022-09-23T22:33:36.837Z,14.56
2022-09-23T22:36:39.393Z,14.27
2022-09-23T22:39:41.946Z,14.65
2022-09-23T22:42:46.114Z,14.60
2022-09-23T22:45:50.523Z,14.68
2022-09-23T22:48:53.384Z,14.68
2022-09-23T22:51:55.988Z,14.71
2022-09-23T22:54:58.549Z,14.30
2022-09-23T22:58:21.267Z,14.72
2022-09-23T23:01:25.692Z,14.78
2022-09-23T23:04:29.686Z,14.71
2022-09-23T23:07:34.094Z,14.76
2022-09-23T23:10:37.331Z,14.78
2022-09-23T23:13:41.798Z,14.49
2022-09-23T23:16:45.091Z,14.74
2022-09-23T23:19:48.146Z,14.70
2022-09-23T23:22:50.713Z,14.61
2022-09-23T23:25:53.321Z,14.58
2022-09-23T23:28:57.591Z,14.50
2022-09-23T23:32:00.152Z,14.48
2022-09-23T23:35:02.715Z,14.42
2022-09-23T23:38:06.411Z,14.56
2022-09-23T23:41:10.884Z,14.48
2022-09-23T23:44:14.880Z,14.46
2022-09-23T23:47:17.460Z,14.33
2022-09-23T23:50:20.073Z,14.50
2022-09-23T23:53:22.648Z,14.49
2022-09-23T23:56:25.687Z,14.53
2022-09-23T23:59:29.645Z,14.49
